createdAt,value
2022-08-17T00:00:59.750Z,13.98
2022-08-17T00:03:34.526Z,6.20
2022-08-17T00:06:06.782Z,8.23
2022-08-17T00:08:35.783Z,4.90
2022-08-17T00:11:04.461Z,5.00
2022-08-17T00:13:34.463Z,4.03
2022-08-17T00:16:18.526Z,7.28
2022-08-17T00:19:06.633Z,4.22
2022-08-17T00:21:59.999Z,4.75
2022-08-17T00:24:21.118Z,8.25
2022-08-17T00:26:47.830Z,11.63
2022-08-17T00:29:19.466Z,15.40
2022-08-17T00:31:46.905Z,12.00
2022-08-17T00:34:13.613Z,7.28
2022-08-17T00:36:40.318Z,6.95
2022-08-17T00:39:07.007Z,13.00
2022-08-17T00:41:33.789Z,11.88
2022-08-17T00:44:01.734Z,9.02
2022-08-17T00:46:33.825Z,7.38
2022-08-17T00:49:00.546Z,14.48
2022-08-17T00:51:48.846Z,7.95
2022-08-17T00:54:16.567Z,16.00
2022-08-17T00:56:46.220Z,7.07
2022-08-17T00:59:14.629Z,8.18
2022-08-17T01:01:41.384Z,12.57
2022-08-17T01:04:08.218Z,17.67
2022-08-17T01:06:34.927Z,6.07
2022-08-17T01:09:01.917Z,6.30
2022-08-17T01:11:29.783Z,5.25
2022-08-17T01:13:56.463Z,6.68
2022-08-17T01:16:28.281Z,8.15
2022-08-17T01:19:00.368Z,7.30
2022-08-17T01:22:00.728Z,14.88
2022-08-17T01:24:27.615Z,6.57
2022-08-17T01:26:54.315Z,6.03
2022-08-17T01:29:23.475Z,8.05
2022-08-17T01:31:52.644Z,6.90
2022-08-17T01:34:19.494Z,6.47
2022-08-17T01:36:48.098Z,7.32
2022-08-17T01:39:22.031Z,8.05
2022-08-17T01:41:48.882Z,7.78
2022-08-17T01:44:16.218Z,8.10
2022-08-17T01:46:42.962Z,6.55
2022-08-17T01:49:10.822Z,20.38
2022-08-17T01:51:37.661Z,8.23
2022-08-17T01:54:06.692Z,6.25
2022-08-17T01:56:34.410Z,10.68
2022-08-17T01:59:01.140Z,8.50
2022-08-17T02:01:29.201Z,7.75
2022-08-17T02:04:00.968Z,8.27
2022-08-17T02:09:18.902Z,4.47
2022-08-17T02:11:50.000Z,7.47
2022-08-17T02:14:16.905Z,8.77
2022-08-17T02:16:43.873Z,7.80
2022-08-17T02:19:12.939Z,6.25
2022-08-17T02:21:39.816Z,7.75
2022-08-17T02:24:11.694Z,6.57
2022-08-17T02:26:38.614Z,12.55
2022-08-17T02:29:05.325Z,16.50
2022-08-17T02:31:32.231Z,12.43
2022-08-17T02:34:04.394Z,11.02
2022-08-17T02:36:33.077Z,7.97
2022-08-17T02:39:01.267Z,13.55
2022-08-17T02:41:27.976Z,11.98
2022-08-17T02:43:54.688Z,13.27
2022-08-17T02:46:21.392Z,10.13
2022-08-17T02:48:48.292Z,8.52
2022-08-17T02:51:14.986Z,8.75
2022-08-17T02:53:41.711Z,10.70
2022-08-17T02:56:08.429Z,9.20
2022-08-17T02:58:36.103Z,10.15
2022-08-17T03:01:06.768Z,8.55
2022-08-17T03:03:33.707Z,11.30
2022-08-17T03:06:00.427Z,8.95
2022-08-17T03:08:27.247Z,7.35
2022-08-17T03:10:54.012Z,12.10
2022-08-17T03:13:20.790Z,11.77
2022-08-17T03:15:47.681Z,13.82
2022-08-17T03:18:24.547Z,11.18
2022-08-17T03:20:54.423Z,7.20
2022-08-17T03:23:24.258Z,8.52
2022-08-17T03:25:53.275Z,8.23
2022-08-17T03:28:20.652Z,9.65
2022-08-17T03:30:47.394Z,7.68
2022-08-17T03:33:14.132Z,11.52
2022-08-17T03:35:40.919Z,6.82
2022-08-17T03:38:08.647Z,8.52
2022-08-17T03:40:57.810Z,7.60
2022-08-17T03:43:22.337Z,7.85
2022-08-17T03:45:49.197Z,11.40
2022-08-17T03:48:18.811Z,9.05
2022-08-17T03:50:45.504Z,8.52
2022-08-17T03:53:15.203Z,12.05
2022-08-17T03:55:41.952Z,15.65
2022-08-17T03:58:08.657Z,9.18
2022-08-17T04:00:36.231Z,8.18
2022-08-17T04:03:06.470Z,9.43
2022-08-17T04:05:35.732Z,9.07
2022-08-17T04:08:02.529Z,8.60
2022-08-17T04:10:33.902Z,13.35
2022-08-17T04:13:05.345Z,10.25
2022-08-17T04:15:32.056Z,21.92
2022-08-17T04:17:58.935Z,12.77
2022-08-17T04:20:25.983Z,10.35
2022-08-17T04:23:04.469Z,13.13
2022-08-17T04:25:34.114Z,15.07
2022-08-17T04:28:01.134Z,17.90
2022-08-17T04:30:29.273Z,13.35
2022-08-17T04:33:04.058Z,18.83
2022-08-17T04:35:40.678Z,13.85
2022-08-17T04:38:08.466Z,11.82
2022-08-17T04:40:35.473Z,15.85
2022-08-17T04:43:06.626Z,12.52
2022-08-17T04:45:33.526Z,19.77
2022-08-17T04:48:00.816Z,16.40
2022-08-17T04:50:27.783Z,36.70
2022-08-17T04:52:54.617Z,17.58
2022-08-17T04:55:21.612Z,13.68
2022-08-17T04:57:48.373Z,13.70
2022-08-17T05:00:15.347Z,14.20
2022-08-17T05:02:49.885Z,13.10
2022-08-17T05:05:23.498Z,12.95
2022-08-17T05:07:54.516Z,10.57
2022-08-17T05:10:22.412Z,15.48
2022-08-17T05:13:06.911Z,12.23
2022-08-17T05:15:36.098Z,32.25
2022-08-17T05:18:03.477Z,19.65
2022-08-17T05:20:30.222Z,8.18
2022-08-17T05:22:58.914Z,16.83
2022-08-17T05:25:29.906Z,23.77
2022-08-17T05:28:00.055Z,14.82
2022-08-17T05:30:28.894Z,12.27
2022-08-17T05:32:58.392Z,19.30
2022-08-17T05:35:26.156Z,23.23
2022-08-17T05:37:52.943Z,16.05
2022-08-17T05:40:21.695Z,24.00
2022-08-17T05:42:48.876Z,26.02
2022-08-17T05:45:16.597Z,26.90
2022-08-17T05:47:58.840Z,15.50
2022-08-17T05:50:27.421Z,19.05
2022-08-17T05:53:13.366Z,18.63
2022-08-17T05:55:52.492Z,28.48
2022-08-17T05:58:54.687Z,25.88
2022-08-17T06:01:55.425Z,15.02
2022-08-17T06:04:22.143Z,34.00
2022-08-17T06:07:10.139Z,15.93
2022-08-17T06:09:49.891Z,32.20
2022-08-17T06:12:40.356Z,27.15
2022-08-17T06:15:14.286Z,23.05
2022-08-17T06:17:41.421Z,21.98
2022-08-17T06:20:10.375Z,22.35
2022-08-17T06:22:41.327Z,21.13
2022-08-17T06:25:12.211Z,33.03
2022-08-17T06:27:40.473Z,26.55
2022-08-17T06:30:08.417Z,37.97
2022-08-17T06:32:39.369Z,33.00
2022-08-17T06:35:07.199Z,58.58
2022-08-17T06:37:33.947Z,23.42
2022-08-17T06:40:29.419Z,44.50
2022-08-17T06:43:06.625Z,30.33
2022-08-17T06:45:50.663Z,45.95
2022-08-17T06:48:23.653Z,29.40
2022-08-17T06:50:56.171Z,27.55
2022-08-17T06:56:18.460Z,47.40
2022-08-17T06:58:45.193Z,63.45
2022-08-17T07:01:21.694Z,50.80
2022-08-17T07:03:59.513Z,62.90
2022-08-17T07:06:37.782Z,43.30
2022-08-17T07:09:21.085Z,37.53
2022-08-17T07:11:54.919Z,55.25
2022-08-17T07:14:42.192Z,47.17
2022-08-17T07:17:16.301Z,37.83
2022-08-17T07:19:44.716Z,42.72
2022-08-17T07:22:21.437Z,43.35
2022-08-17T07:24:58.950Z,37.55
2022-08-17T07:27:29.803Z,40.78
2022-08-17T07:30:22.832Z,47.05
2022-08-17T07:32:58.071Z,37.88
2022-08-17T07:35:40.766Z,49.53
2022-08-17T07:38:24.302Z,59.47
2022-08-17T07:40:56.303Z,44.58
2022-08-17T07:43:23.634Z,49.13
2022-08-17T07:46:11.323Z,49.03
2022-08-17T07:48:39.124Z,59.90
2022-08-17T07:51:15.774Z,37.47
2022-08-17T07:53:42.468Z,31.55
2022-08-17T07:56:09.301Z,40.78
2022-08-17T07:58:36.026Z,49.38
2022-08-17T08:01:11.076Z,42.65
2022-08-17T08:03:43.671Z,71.20
2022-08-17T08:06:24.601Z,35.13
2022-08-17T08:08:54.652Z,42.35
2022-08-17T08:11:35.111Z,45.17
2022-08-17T08:14:22.252Z,73.72
2022-08-17T08:17:00.429Z,50.95
2022-08-17T08:19:28.552Z,48.20
2022-08-17T08:22:18.179Z,51.95
2022-08-17T08:25:23.675Z,56.00
2022-08-17T08:28:01.178Z,40.28
2022-08-17T08:30:28.021Z,60.30
2022-08-17T08:33:21.646Z,51.00
2022-08-17T08:35:51.677Z,50.00
2022-08-17T08:38:29.012Z,42.95
2022-08-17T08:41:13.553Z,46.92
2022-08-17T08:43:49.493Z,55.13
2022-08-17T08:46:35.369Z,53.40
2022-08-17T08:49:14.460Z,47.80
2022-08-17T08:51:53.526Z,83.72
2022-08-17T08:54:32.479Z,52.83
2022-08-17T08:57:28.074Z,56.72
2022-08-17T09:00:15.292Z,44.25
2022-08-17T09:02:50.789Z,55.05
2022-08-17T09:05:39.775Z,57.40
2022-08-17T09:08:24.857Z,43.95
2022-08-17T09:11:00.554Z,41.70
2022-08-17T09:14:21.050Z,65.85
2022-08-17T09:17:08.085Z,53.25
2022-08-17T09:19:45.026Z,58.17
2022-08-17T09:22:11.720Z,39.40
2022-08-17T09:24:47.834Z,47.75
2022-08-17T09:27:18.971Z,31.60
2022-08-17T09:29:54.229Z,37.88
2022-08-17T09:32:25.185Z,26.55
2022-08-17T09:34:53.767Z,31.38
2022-08-17T09:37:43.432Z,29.20
2022-08-17T09:40:13.281Z,36.63
2022-08-17T09:42:47.586Z,36.60
2022-08-17T09:45:29.774Z,68.25
2022-08-17T09:48:22.945Z,55.53
2022-08-17T09:51:20.163Z,37.03
2022-08-17T09:53:46.873Z,30.38
2022-08-17T09:56:16.693Z,26.13
2022-08-17T09:58:58.190Z,26.10
2022-08-17T10:01:43.081Z,31.20
2022-08-17T10:04:34.491Z,30.20
2022-08-17T10:07:17.706Z,25.83
2022-08-17T10:10:13.550Z,17.88
2022-08-17T10:13:09.586Z,30.85
2022-08-17T10:15:57.695Z,31.65
2022-08-17T10:18:50.029Z,37.10
2022-08-17T10:21:17.574Z,19.08
2022-08-17T10:23:44.449Z,20.65
2022-08-17T10:26:18.715Z,26.45
2022-08-17T10:29:06.877Z,34.28
2022-08-17T10:31:48.213Z,19.30
2022-08-17T10:34:24.012Z,22.50
2022-08-17T10:37:08.886Z,27.42
2022-08-17T10:39:57.269Z,24.48
2022-08-17T10:42:30.822Z,24.35
2022-08-17T10:45:03.724Z,32.08
2022-08-17T10:47:56.053Z,30.20
2022-08-17T10:50:58.008Z,42.92
2022-08-17T10:53:36.705Z,44.30
2022-08-17T10:56:12.878Z,24.90
2022-08-17T10:58:49.514Z,28.65
2022-08-17T11:01:16.918Z,19.52
2022-08-17T11:03:54.641Z,40.83
2022-08-17T11:06:39.423Z,47.83
2022-08-17T11:09:44.378Z,25.77
2022-08-17T11:12:14.089Z,38.13
2022-08-17T11:14:58.976Z,25.15
2022-08-17T11:17:43.718Z,28.83
2022-08-17T11:20:22.104Z,23.35
2022-08-17T11:23:09.130Z,31.50
2022-08-17T11:25:40.983Z,31.45
2022-08-17T11:28:15.672Z,27.88
2022-08-17T11:30:57.587Z,42.90
2022-08-17T11:36:16.996Z,22.42
2022-08-17T11:39:18.802Z,30.73
2022-08-17T11:42:16.172Z,34.23
2022-08-17T11:45:07.467Z,46.25
2022-08-17T11:48:16.105Z,25.73
2022-08-17T11:50:59.066Z,23.83
2022-08-17T11:53:37.969Z,19.67
2022-08-17T11:56:33.655Z,36.13
2022-08-17T11:59:00.555Z,37.78
2022-08-17T12:01:27.287Z,53.95
2022-08-17T12:03:55.977Z,32.38
2022-08-17T12:06:30.372Z,27.58
2022-08-17T12:09:06.612Z,57.88
2022-08-17T12:12:23.132Z,44.10
2022-08-17T12:15:09.577Z,21.67
2022-08-17T12:17:40.355Z,46.83
2022-08-17T12:20:29.240Z,30.23
2022-08-17T12:23:24.303Z,20.67
2022-08-17T12:25:53.897Z,19.55
2022-08-17T12:28:31.294Z,23.20
2022-08-17T12:31:06.756Z,21.23
2022-08-17T12:33:33.515Z,27.63
2022-08-17T12:36:04.837Z,22.95
2022-08-17T12:38:35.773Z,28.92
2022-08-17T12:41:04.563Z,24.98
2022-08-17T12:43:31.429Z,34.60
2022-08-17T12:46:00.856Z,37.20
2022-08-17T12:48:40.146Z,32.72
2022-08-17T12:51:26.265Z,24.83
2022-08-17T12:53:54.219Z,20.92
2022-08-17T12:56:21.724Z,25.42
2022-08-17T12:58:51.704Z,56.70
2022-08-17T13:01:18.474Z,70.60
2022-08-17T13:03:55.516Z,51.92
2022-08-17T13:06:32.709Z,38.70
2022-08-17T13:09:24.086Z,21.75
2022-08-17T13:12:03.091Z,28.27
2022-08-17T13:14:32.537Z,32.47
2022-08-17T13:17:01.624Z,32.95
2022-08-17T13:19:40.269Z,19.00
2022-08-17T13:22:10.367Z,33.97
2022-08-17T13:24:37.729Z,26.80
2022-08-17T13:27:08.714Z,23.25
2022-08-17T13:29:44.603Z,17.25
2022-08-17T13:32:13.423Z,20.15
2022-08-17T13:35:11.533Z,47.50
2022-08-17T13:37:33.655Z,27.15
2022-08-17T13:40:09.653Z,30.88
2022-08-17T13:42:52.262Z,18.83
2022-08-17T13:45:35.048Z,41.45
2022-08-17T13:48:13.647Z,34.35
2022-08-17T13:50:47.778Z,34.67
2022-08-17T13:53:26.204Z,18.45
2022-08-17T13:56:05.949Z,16.98
2022-08-17T13:59:02.923Z,13.88
2022-08-17T14:01:33.904Z,8.52
2022-08-17T14:04:02.897Z,34.50
2022-08-17T14:06:52.595Z,26.38
2022-08-17T14:09:21.756Z,10.07
2022-08-17T14:11:48.557Z,39.28
2022-08-17T14:14:15.545Z,34.13
2022-08-17T14:16:42.291Z,15.00
2022-08-17T14:19:12.695Z,23.73
2022-08-17T14:21:43.836Z,20.52
2022-08-17T14:24:23.527Z,4.80
2022-08-17T14:26:50.522Z,16.70
2022-08-17T14:29:17.238Z,13.93
2022-08-17T14:31:48.497Z,8.35
2022-08-17T14:34:20.199Z,30.77
2022-08-17T14:36:48.508Z,11.82
2022-08-17T14:39:15.640Z,19.05
2022-08-17T14:41:42.431Z,14.57
2022-08-17T14:44:09.621Z,39.38
2022-08-17T14:46:36.350Z,18.48
2022-08-17T14:49:03.154Z,20.58
2022-08-17T14:51:30.210Z,16.10
2022-08-17T14:53:56.934Z,20.65
2022-08-17T14:56:24.570Z,8.20
2022-08-17T14:58:51.304Z,13.15
2022-08-17T15:01:18.508Z,29.63
2022-08-17T15:03:45.373Z,12.35
2022-08-17T15:06:12.584Z,25.17
2022-08-17T15:08:39.442Z,20.20
2022-08-17T15:11:06.490Z,17.25
2022-08-17T15:13:52.023Z,12.98
2022-08-17T15:16:20.008Z,17.77
2022-08-17T15:18:46.710Z,25.48
2022-08-17T15:21:13.443Z,27.05
2022-08-17T15:23:40.191Z,16.35
2022-08-17T15:26:09.470Z,19.33
2022-08-17T15:28:36.231Z,25.92
2022-08-17T15:31:03.002Z,38.80
2022-08-17T15:33:30.015Z,36.35
2022-08-17T15:35:58.637Z,25.08
2022-08-17T15:38:25.521Z,9.88
2022-08-17T15:40:52.394Z,25.08
2022-08-17T15:43:28.002Z,6.68
2022-08-17T15:46:12.491Z,36.50
2022-08-17T15:48:40.494Z,6.22
2022-08-17T15:51:30.441Z,22.88
2022-08-17T15:54:22.486Z,25.02
2022-08-17T15:56:50.323Z,15.02
2022-08-17T15:59:17.058Z,24.05
2022-08-17T16:03:01.326Z,48.70
2022-08-17T16:04:31.777Z,34.20
2022-08-17T16:07:00.012Z,15.60
2022-08-17T16:09:27.183Z,52.22
2022-08-17T16:11:55.268Z,38.42
2022-08-17T16:14:24.208Z,19.67
2022-08-17T16:16:51.215Z,13.57
2022-08-17T16:19:17.951Z,14.95
2022-08-17T16:21:44.681Z,38.78
2022-08-17T16:24:12.787Z,12.93
2022-08-17T16:26:40.595Z,29.77
2022-08-17T16:29:07.445Z,43.70
2022-08-17T16:31:34.465Z,16.63
2022-08-17T16:34:17.333Z,37.40
2022-08-17T16:36:55.029Z,21.20
2022-08-17T16:39:25.312Z,17.38
2022-08-17T16:41:52.095Z,15.55
2022-08-17T16:44:19.897Z,21.83
2022-08-17T16:46:47.036Z,7.18
2022-08-17T16:49:31.589Z,35.53
2022-08-17T16:52:01.399Z,31.20
2022-08-17T16:54:28.159Z,16.70
2022-08-17T16:56:54.892Z,29.35
2022-08-17T16:59:31.670Z,12.45
2022-08-17T17:02:08.486Z,25.42
2022-08-17T17:04:36.283Z,34.70
2022-08-17T17:07:07.529Z,34.47
2022-08-17T17:09:35.880Z,24.23
2022-08-17T17:12:05.724Z,24.77
2022-08-17T17:14:38.220Z,25.40
2022-08-17T17:17:07.143Z,20.13
2022-08-17T17:19:43.081Z,30.30
2022-08-17T17:22:15.788Z,29.52
2022-08-17T17:24:44.110Z,26.25
2022-08-17T17:27:13.751Z,22.92
2022-08-17T17:30:12.461Z,24.27
2022-08-17T17:32:51.236Z,26.15
2022-08-17T17:35:20.772Z,21.23
2022-08-17T17:37:47.629Z,32.38
2022-08-17T17:40:29.091Z,22.73
2022-08-17T17:43:02.377Z,44.47
2022-08-17T17:45:55.542Z,24.42
2022-08-17T17:48:22.285Z,25.13
2022-08-17T17:51:00.456Z,24.67
2022-08-17T17:54:07.052Z,23.13
2022-08-17T17:56:44.920Z,20.25
2022-08-17T17:59:43.923Z,46.28
2022-08-17T18:02:11.105Z,32.55
2022-08-17T18:04:42.886Z,35.05
2022-08-17T18:07:32.036Z,30.50
2022-08-17T18:10:29.431Z,42.78
2022-08-17T18:13:14.571Z,36.70
2022-08-17T18:15:45.895Z,23.90
2022-08-17T18:18:15.702Z,24.20
2022-08-17T18:20:53.365Z,29.08
2022-08-17T18:23:27.571Z,20.45
2022-08-17T18:25:55.491Z,26.58
2022-08-17T18:28:32.644Z,33.35
2022-08-17T18:31:16.723Z,31.63
2022-08-17T18:33:45.241Z,24.95
2022-08-17T18:36:12.420Z,19.85
2022-08-17T18:38:41.293Z,14.45
2022-08-17T18:41:25.454Z,28.65
2022-08-17T18:44:04.306Z,26.20
2022-08-17T18:46:33.744Z,25.70
2022-08-17T18:49:03.021Z,17.80
2022-08-17T18:51:43.420Z,10.93
2022-08-17T18:54:19.457Z,18.27
2022-08-17T18:56:56.181Z,19.98
